createdAt,value
2022-12-25T00:00:40.580Z,100688.81
2022-12-25T00:03:43.451Z,100686.22
2022-12-25T00:06:45.706Z,100697.25
2022-12-25T00:09:48.131Z,100698.47
2022-12-25T00:12:50.667Z,100709.41
2022-12-25T00:15:53.127Z,100712.53
2022-12-25T00:18:56.809Z,100706.25
2022-12-25T00:21:59.197Z,100710.38
2022-12-25T00:25:01.330Z,100718.13
2022-12-25T00:28:03.907Z,100725.37
2022-12-25T00:31:07.984Z,100730.97
2022-12-25T00:34:10.440Z,100740.44
2022-12-25T00:37:12.691Z,100742.59
2022-12-25T00:40:15.223Z,100745.31
2022-12-25T00:43:17.394Z,100748.50
2022-12-25T00:46:19.994Z,100740.38
2022-12-25T00:49:23.695Z,100746.47
2022-12-25T00:52:26.352Z,100750.91
2022-12-25T00:55:28.476Z,100757.06
2022-12-25T00:58:32.795Z,100764.69
2022-12-25T01:01:34.963Z,100774.31
2022-12-25T01:04:37.544Z,100755.81
2022-12-25T01:07:39.690Z,100753.41
2022-12-25T01:10:42.119Z,100756.66
2022-12-25T01:13:44.213Z,100767.47
2022-12-25T01:16:46.742Z,100755.91
2022-12-25T01:19:48.937Z,100754.56
2022-12-25T01:22:51.323Z,100768.00
2022-12-25T01:25:53.434Z,100769.69
2022-12-25T01:28:56.243Z,100768.63
2022-12-25T01:31:58.434Z,100760.66
2022-12-25T01:35:00.845Z,100764.19
2022-12-25T01:38:03.011Z,100771.75
2022-12-25T01:41:05.449Z,100776.25
2022-12-25T01:44:16.358Z,100791.00
2022-12-25T01:47:18.939Z,100794.84
2022-12-25T01:50:22.025Z,100783.22
2022-12-25T01:53:26.286Z,100777.50
2022-12-25T01:56:29.754Z,100780.69
2022-12-25T01:59:32.368Z,100780.25
2022-12-25T02:02:36.187Z,100774.97
2022-12-25T02:05:38.755Z,100771.50
2022-12-25T02:08:41.525Z,100772.69
2022-12-25T02:11:57.262Z,100777.16
2022-12-25T02:15:05.737Z,100776.44
2022-12-25T02:18:27.000Z,100781.06
2022-12-25T02:21:50.112Z,100777.66
2022-12-25T02:25:04.760Z,100784.41
2022-12-25T02:28:32.382Z,100777.56
2022-12-25T02:31:59.300Z,100776.37
2022-12-25T02:35:15.427Z,100787.25
2022-12-25T02:39:04.201Z,100785.75
2022-12-25T02:42:11.549Z,100798.28
2022-12-25T02:45:38.159Z,100802.38
2022-12-25T02:49:04.432Z,100795.34
2022-12-25T02:52:33.237Z,100801.09
2022-12-25T02:56:03.336Z,100800.00
2022-12-25T02:59:25.588Z,100799.56
2022-12-25T03:02:49.346Z,100804.75
2022-12-25T03:06:13.172Z,100811.00
2022-12-25T03:09:49.051Z,100811.03
2022-12-25T03:13:27.767Z,100815.53
2022-12-25T03:16:49.083Z,100827.63
2022-12-25T03:20:09.975Z,100833.25
2022-12-25T03:23:34.011Z,100834.06
2022-12-25T03:26:54.844Z,100822.59
2022-12-25T03:30:15.832Z,100821.75
2022-12-25T03:33:45.784Z,100818.41
2022-12-25T03:37:17.179Z,100837.53
2022-12-25T03:41:09.567Z,100843.94
2022-12-25T03:44:47.618Z,100850.87
2022-12-25T03:48:18.651Z,100855.13
2022-12-25T03:51:44.867Z,100859.38
2022-12-25T03:55:09.239Z,100861.25
2022-12-25T03:58:38.856Z,100866.09
2022-12-25T04:02:00.352Z,100869.50
2022-12-25T04:05:21.965Z,100861.31
2022-12-25T04:08:43.200Z,100867.06
2022-12-25T04:12:04.797Z,100866.16
2022-12-25T04:15:26.157Z,100856.66
2022-12-25T04:18:47.098Z,100849.50
2022-12-25T04:22:08.056Z,100841.25
2022-12-25T04:25:29.184Z,100855.22
2022-12-25T04:28:49.962Z,100853.50
2022-12-25T04:32:10.950Z,100869.72
2022-12-25T04:35:31.759Z,100867.06
2022-12-25T04:38:34.636Z,100862.09
2022-12-25T04:41:36.800Z,100859.38
2022-12-25T04:44:39.269Z,100854.81
2022-12-25T04:47:41.375Z,100853.31
2022-12-25T04:50:43.769Z,100847.59
2022-12-25T04:53:47.489Z,100841.41
2022-12-25T04:56:49.891Z,100848.09
2022-12-25T04:59:51.996Z,100852.00
2022-12-25T05:02:54.564Z,100865.75
2022-12-25T05:05:57.094Z,100867.69
2022-12-25T05:08:59.583Z,100866.19
2022-12-25T05:12:01.746Z,100867.91
2022-12-25T05:15:04.424Z,100867.91
2022-12-25T05:18:06.741Z,100866.78
2022-12-25T05:21:11.761Z,100873.00
2022-12-25T05:24:13.945Z,100871.72
2022-12-25T05:27:16.545Z,100871.56
2022-12-25T05:30:18.684Z,100877.06
2022-12-25T05:33:21.071Z,100873.09
2022-12-25T05:36:23.790Z,100879.25
2022-12-25T05:39:26.217Z,100872.22
2022-12-25T05:42:28.418Z,100874.47
2022-12-25T05:45:31.307Z,100893.25
2022-12-25T05:48:35.610Z,100884.50
2022-12-25T05:51:38.215Z,100877.75
2022-12-25T05:54:40.375Z,100889.59
2022-12-25T05:57:42.793Z,100895.56
2022-12-25T06:00:44.951Z,100904.25
2022-12-25T06:03:47.950Z,100896.66
2022-12-25T06:06:50.403Z,100901.00
2022-12-25T06:09:53.089Z,100901.50
2022-12-25T06:12:55.304Z,100892.00
2022-12-25T06:15:59.089Z,100894.63
2022-12-25T06:19:01.290Z,100891.44
2022-12-25T06:22:03.895Z,100879.47
2022-12-25T06:25:06.634Z,100877.37
2022-12-25T06:28:09.116Z,100884.66
2022-12-25T06:31:17.123Z,100886.78
2022-12-25T06:34:19.599Z,100897.72
2022-12-25T06:37:21.727Z,100903.53
2022-12-25T06:40:24.123Z,100913.31
2022-12-25T06:43:26.225Z,100915.88
2022-12-25T06:46:30.260Z,100919.44
2022-12-25T06:49:32.529Z,100922.69
2022-12-25T06:52:35.043Z,100921.84
2022-12-25T06:55:37.373Z,100927.47
2022-12-25T06:58:44.206Z,100932.19
2022-12-25T07:01:50.371Z,100942.56
2022-12-25T07:04:53.525Z,100959.16
2022-12-25T07:07:55.767Z,100964.44
2022-12-25T07:10:58.233Z,100967.62
2022-12-25T07:14:00.456Z,100964.03
2022-12-25T07:17:02.872Z,100974.34
2022-12-25T07:20:06.910Z,100973.50
2022-12-25T07:23:09.308Z,100983.63
2022-12-25T07:26:12.339Z,100984.88
2022-12-25T07:29:14.945Z,100991.31
2022-12-25T07:32:17.271Z,100990.09
2022-12-25T07:35:19.891Z,100987.84
2022-12-25T07:38:22.043Z,100997.06
2022-12-25T07:41:24.636Z,100998.19
2022-12-25T07:44:29.761Z,100998.72
2022-12-25T07:47:32.175Z,100996.87
2022-12-25T07:50:34.417Z,100997.62
2022-12-25T07:53:37.785Z,101007.81
2022-12-25T07:56:39.931Z,101016.72
2022-12-25T07:59:42.366Z,101021.00
2022-12-25T08:02:44.915Z,101020.59
2022-12-25T08:05:47.655Z,101028.75
2022-12-25T08:08:49.863Z,101036.47
2022-12-25T08:11:52.350Z,101036.28
2022-12-25T08:14:54.521Z,101041.16
2022-12-25T08:17:56.920Z,101053.28
2022-12-25T08:21:06.364Z,101045.31
2022-12-25T08:24:08.769Z,101038.25
2022-12-25T08:27:10.935Z,101041.16
2022-12-25T08:30:13.633Z,101040.25
2022-12-25T08:33:15.781Z,101053.22
2022-12-25T08:36:18.927Z,101049.31
2022-12-25T08:39:21.100Z,101057.59
2022-12-25T08:42:23.584Z,101048.97
2022-12-25T08:45:31.208Z,101052.16
2022-12-25T08:48:37.965Z,101049.31
2022-12-25T08:51:40.260Z,101051.59
2022-12-25T08:54:42.659Z,101052.78
2022-12-25T08:57:44.819Z,101060.94
2022-12-25T09:00:47.255Z,101065.69
2022-12-25T09:03:49.449Z,101060.00
2022-12-25T09:06:51.987Z,101060.56
2022-12-25T09:09:54.116Z,101065.09
2022-12-25T09:12:56.933Z,101068.06
2022-12-25T09:15:59.679Z,101066.22
2022-12-25T09:19:02.308Z,101062.25
2022-12-25T09:22:04.745Z,101060.75
2022-12-25T09:25:07.497Z,101050.28
2022-12-25T09:28:09.609Z,101065.47
2022-12-25T09:31:12.055Z,101073.44
2022-12-25T09:34:18.875Z,101066.19
2022-12-25T09:37:21.559Z,101059.88
2022-12-25T09:40:28.360Z,101057.28
2022-12-25T09:43:33.309Z,101058.28
2022-12-25T09:47:10.386Z,101061.25
2022-12-25T09:50:27.971Z,101063.13
2022-12-25T09:53:44.521Z,101066.75
2022-12-25T09:56:46.980Z,101061.84
2022-12-25T09:59:49.164Z,101056.31
2022-12-25T10:03:13.067Z,101060.63
2022-12-25T10:06:18.718Z,101064.09
2022-12-25T10:09:52.505Z,101057.91
2022-12-25T10:13:22.766Z,101060.19
2022-12-25T10:16:45.186Z,101050.22
2022-12-25T10:20:05.655Z,101047.88
2022-12-25T10:23:22.711Z,101038.09
2022-12-25T10:26:26.965Z,101042.47
2022-12-25T10:29:32.655Z,101035.22
2022-12-25T10:32:35.104Z,101032.88
2022-12-25T10:35:37.852Z,101026.84
2022-12-25T10:38:40.224Z,101026.50
2022-12-25T10:42:10.984Z,101029.56
2022-12-25T10:45:13.430Z,101029.66
2022-12-25T10:48:27.735Z,101032.12
2022-12-25T10:51:35.780Z,101030.66
2022-12-25T10:54:37.924Z,101037.06
2022-12-25T10:57:47.095Z,101033.87
2022-12-25T11:00:55.286Z,101028.09
2022-12-25T11:03:58.046Z,101025.78
2022-12-25T11:07:22.305Z,101026.00
2022-12-25T11:10:42.215Z,101016.91
2022-12-25T11:13:50.895Z,101013.50
2022-12-25T11:16:53.712Z,101011.31
2022-12-25T11:19:58.536Z,100998.09
2022-12-25T11:23:00.945Z,101003.72
2022-12-25T11:26:08.107Z,101004.78
2022-12-25T11:29:37.060Z,101000.91
2022-12-25T11:32:48.629Z,100994.50
2022-12-25T11:35:54.787Z,100994.44
2022-12-25T11:39:16.531Z,100989.37
2022-12-25T11:42:34.989Z,100994.09
2022-12-25T11:46:18.361Z,100993.69
2022-12-25T11:49:24.248Z,100989.53
2022-12-25T11:52:32.057Z,100997.06
2022-12-25T11:55:49.464Z,100996.53
2022-12-25T11:59:01.515Z,100993.41
2022-12-25T12:02:36.436Z,100985.44
2022-12-25T12:05:53.286Z,100991.94
2022-12-25T12:09:24.120Z,100985.69
2022-12-25T12:12:46.810Z,100986.00
2022-12-25T12:15:51.573Z,100976.22
2022-12-25T12:18:54.017Z,100990.56
2022-12-25T12:22:00.909Z,100988.25
2022-12-25T12:25:07.127Z,100988.34
2022-12-25T12:28:23.407Z,100991.28
2022-12-25T12:31:38.972Z,100987.09
2022-12-25T12:34:50.129Z,100985.38
2022-12-25T12:37:56.674Z,100991.62
2022-12-25T12:41:01.827Z,100994.25
2022-12-25T12:44:05.537Z,100988.81
2022-12-25T12:47:28.229Z,100986.06
2022-12-25T12:50:35.407Z,100992.53
2022-12-25T12:53:42.718Z,100995.34
2022-12-25T12:56:59.844Z,100992.87
2022-12-25T13:00:10.028Z,100996.87
2022-12-25T13:03:38.199Z,100999.59
2022-12-25T13:07:03.427Z,101006.00
2022-12-25T13:10:35.343Z,101009.84
2022-12-25T13:13:42.003Z,101007.25
2022-12-25T13:16:47.363Z,101011.59
2022-12-25T13:19:55.187Z,101001.25
2022-12-25T13:22:57.637Z,101003.06
2022-12-25T13:26:06.277Z,101008.97
2022-12-25T13:29:22.895Z,100999.59
2022-12-25T13:32:32.057Z,101006.72
2022-12-25T13:35:35.166Z,101010.03
2022-12-25T13:38:42.527Z,101017.63
2022-12-25T13:42:09.370Z,101011.84
2022-12-25T13:45:14.495Z,100998.16
2022-12-25T13:48:20.081Z,101011.38
2022-12-25T13:51:22.784Z,101012.87
2022-12-25T13:54:26.842Z,101011.00
2022-12-25T13:57:33.526Z,101005.50
2022-12-25T14:00:46.471Z,101016.03
2022-12-25T14:03:49.034Z,101017.91
2022-12-25T14:06:52.466Z,101012.31
2022-12-25T14:09:59.268Z,101016.00
2022-12-25T14:13:05.464Z,101012.03
2022-12-25T14:16:09.123Z,101011.34
2022-12-25T14:19:22.915Z,101020.91
2022-12-25T14:22:27.087Z,101021.19
2022-12-25T14:25:33.398Z,101022.88
2022-12-25T14:28:37.660Z,101019.87
2022-12-25T14:31:40.353Z,101026.19
2022-12-25T14:34:46.253Z,101030.37
2022-12-25T14:37:54.680Z,101035.25
2022-12-25T14:41:02.280Z,101030.34
2022-12-25T14:44:24.639Z,101036.75
2022-12-25T14:47:27.566Z,101035.31
2022-12-25T14:50:32.039Z,101037.28
2022-12-25T14:53:39.699Z,101036.00
2022-12-25T14:56:48.195Z,101040.75
2022-12-25T14:59:57.905Z,101024.66
2022-12-25T15:03:00.867Z,101031.25
2022-12-25T15:06:06.424Z,101030.94
2022-12-25T15:09:16.717Z,101034.31
2022-12-25T15:12:19.176Z,101043.50
2022-12-25T15:15:21.401Z,101043.13
2022-12-25T15:18:26.379Z,101041.13
2022-12-25T15:21:31.363Z,101040.41
2022-12-25T15:24:33.811Z,101036.13
2022-12-25T15:27:36.451Z,101035.41
2022-12-25T15:30:39.367Z,101036.25
2022-12-25T15:33:44.248Z,101037.50
2022-12-25T15:36:53.770Z,101037.41
2022-12-25T15:40:02.663Z,101030.25
2022-12-25T15:43:11.308Z,101032.06
2022-12-25T15:46:24.485Z,101042.66
2022-12-25T15:49:27.150Z,101056.31
2022-12-25T15:52:29.500Z,101051.38
2022-12-25T15:55:32.088Z,101042.28
2022-12-25T15:58:34.231Z,101042.38
2022-12-25T16:01:36.771Z,101042.44
2022-12-25T16:04:42.324Z,101041.28
2022-12-25T16:07:44.465Z,101045.44
2022-12-25T16:10:47.191Z,101042.22
2022-12-25T16:13:49.413Z,101041.44
2022-12-25T16:16:51.792Z,101045.22
2022-12-25T16:19:53.906Z,101041.06
2022-12-25T16:22:56.305Z,101034.34
2022-12-25T16:25:58.689Z,101037.91
2022-12-25T16:29:06.794Z,101037.13
2022-12-25T16:32:11.629Z,101032.25
2022-12-25T16:35:14.119Z,101026.66
2022-12-25T16:38:16.251Z,101015.00
2022-12-25T16:41:18.881Z,101007.69
2022-12-25T16:44:21.092Z,101020.09
2022-12-25T16:47:23.635Z,101020.09
2022-12-25T16:50:25.876Z,101031.66
2022-12-25T16:53:29.963Z,101029.56
2022-12-25T16:56:32.438Z,101024.56
2022-12-25T16:59:35.818Z,101017.94
2022-12-25T17:02:38.101Z,101018.41
2022-12-25T17:05:40.631Z,101016.25
2022-12-25T17:08:43.544Z,101014.22
2022-12-25T17:11:45.969Z,101012.78
2022-12-25T17:14:48.102Z,101014.47
2022-12-25T17:17:50.592Z,101016.25
2022-12-25T17:20:53.900Z,101020.50
2022-12-25T17:24:02.378Z,101011.00
2022-12-25T17:27:08.556Z,101014.91
2022-12-25T17:30:11.291Z,101016.59
2022-12-25T17:33:13.393Z,101013.25
2022-12-25T17:36:19.107Z,101010.03
2022-12-25T17:39:21.264Z,100998.03
2022-12-25T17:42:23.725Z,100997.19
2022-12-25T17:45:25.944Z,100977.62
2022-12-25T17:48:28.658Z,100973.44
2022-12-25T17:51:31.669Z,100984.31
2022-12-25T17:54:35.091Z,100984.19
2022-12-25T17:57:37.216Z,100984.75
2022-12-25T18:00:39.651Z,100991.66
2022-12-25T18:03:43.727Z,100989.19
2022-12-25T18:06:46.185Z,101001.22
2022-12-25T18:09:48.570Z,100994.47
2022-12-25T18:12:50.733Z,100988.66
2022-12-25T18:15:53.148Z,100989.87
2022-12-25T18:18:55.321Z,100990.72
2022-12-25T18:21:57.755Z,100996.50
2022-12-25T18:24:59.938Z,100987.03
2022-12-25T18:28:02.915Z,100984.41
2022-12-25T18:31:10.562Z,100981.75
2022-12-25T18:34:13.195Z,100980.69
2022-12-25T18:37:15.416Z,100972.00
2022-12-25T18:40:17.940Z,100968.31
2022-12-25T18:43:20.761Z,100972.47
2022-12-25T18:46:43.184Z,100975.81
2022-12-25T18:49:45.386Z,100973.78
2022-12-25T18:52:51.556Z,100970.31
2022-12-25T18:56:03.870Z,100972.84
2022-12-25T18:59:06.359Z,100966.13
2022-12-25T19:02:12.074Z,100955.75
2022-12-25T19:05:15.678Z,100961.25
2022-12-25T19:08:17.844Z,100960.62
2022-12-25T19:11:21.227Z,100959.56
2022-12-25T19:14:24.315Z,100962.94
2022-12-25T19:17:31.968Z,100950.44
2022-12-25T19:20:34.499Z,100951.66
2022-12-25T19:23:38.268Z,100953.31
2022-12-25T19:26:40.483Z,100959.19
2022-12-25T19:29:42.927Z,100958.22
2022-12-25T19:32:45.091Z,100965.09
2022-12-25T19:35:48.906Z,100956.16
2022-12-25T19:38:51.116Z,100964.25
2022-12-25T19:41:53.513Z,100963.50
2022-12-25T19:44:55.936Z,100970.44
2022-12-25T19:47:58.441Z,100982.47
2022-12-25T19:51:00.778Z,100961.81
2022-12-25T19:54:04.948Z,100949.66
2022-12-25T19:57:07.139Z,100947.97
2022-12-25T20:00:09.977Z,100949.03
2022-12-25T20:03:15.452Z,100951.59
2022-12-25T20:06:27.829Z,100942.66
2022-12-25T20:09:30.999Z,100921.19
2022-12-25T20:12:33.413Z,100913.22
2022-12-25T20:15:35.673Z,100910.59
2022-12-25T20:18:39.221Z,100907.69
2022-12-25T20:21:41.608Z,100906.56
2022-12-25T20:24:44.436Z,100920.38
2022-12-25T20:27:46.952Z,100928.37
2022-12-25T20:30:49.405Z,100929.53
2022-12-25T20:33:51.551Z,100923.28
2022-12-25T20:36:54.000Z,100925.00
2022-12-25T20:39:56.332Z,100915.81
2022-12-25T20:42:58.724Z,100908.47
2022-12-25T20:46:00.963Z,100903.09
2022-12-25T20:49:04.293Z,100902.47
2022-12-25T20:52:06.693Z,100911.13
2022-12-25T20:55:09.153Z,100909.44
2022-12-25T20:58:11.786Z,100914.87
2022-12-25T21:01:18.464Z,100919.78
2022-12-25T21:04:20.740Z,100912.84
2022-12-25T21:07:23.154Z,100919.16
2022-12-25T21:10:25.276Z,100917.25
2022-12-25T21:13:30.181Z,100912.22
2022-12-25T21:16:33.181Z,100897.69
2022-12-25T21:19:35.780Z,100887.16
2022-12-25T21:22:37.931Z,100898.53
2022-12-25T21:25:40.388Z,100899.94
2022-12-25T21:28:42.668Z,100905.88
2022-12-25T21:32:03.609Z,100907.84
2022-12-25T21:35:06.074Z,100901.56
2022-12-25T21:38:08.515Z,100893.00
2022-12-25T21:41:12.862Z,100891.56
2022-12-25T21:44:15.311Z,100895.91
2022-12-25T21:47:17.499Z,100897.38
2022-12-25T21:50:39.516Z,100894.22
2022-12-25T21:53:41.754Z,100888.06
2022-12-25T21:56:47.279Z,100889.84
2022-12-25T21:59:49.504Z,100897.53
2022-12-25T22:02:52.102Z,100902.88
2022-12-25T22:06:21.176Z,100914.87
2022-12-25T22:09:24.058Z,100903.72
2022-12-25T22:12:44.923Z,100909.56
2022-12-25T22:16:05.791Z,100914.34
2022-12-25T22:19:26.720Z,100914.41
2022-12-25T22:22:30.067Z,100907.50
2022-12-25T22:25:32.615Z,100906.19
2022-12-25T22:28:34.756Z,100906.31
2022-12-25T22:31:42.618Z,100894.63
2022-12-25T22:34:48.479Z,100888.84
2022-12-25T22:37:51.211Z,100896.25
2022-12-25T22:40:53.401Z,100891.41
2022-12-25T22:47:17.950Z,100897.63
2022-12-25T22:50:20.429Z,100898.78
2022-12-25T22:53:22.666Z,100910.63
2022-12-25T22:56:25.177Z,100905.41
2022-12-25T22:59:27.868Z,100889.28
2022-12-25T23:02:30.516Z,100897.19
2022-12-25T23:05:32.898Z,100892.84
2022-12-25T23:08:35.425Z,100879.84
2022-12-25T23:11:37.931Z,100872.06
2022-12-25T23:14:40.449Z,100874.75
2022-12-25T23:18:01.663Z,100880.84
2022-12-25T23:21:22.880Z,100884.94
2022-12-25T23:24:43.819Z,100893.56
2022-12-25T23:27:46.286Z,100896.25
2022-12-25T23:30:50.493Z,100896.09
2022-12-25T23:33:52.914Z,100891.94
2022-12-25T23:36:55.142Z,100878.38
2022-12-25T23:39:57.588Z,100873.78
2022-12-25T23:42:59.747Z,100869.69
2022-12-25T23:46:02.355Z,100868.38
2022-12-25T23:49:05.139Z,100861.59
2022-12-25T23:52:07.539Z,100859.28
2022-12-25T23:55:09.856Z,100856.59
2022-12-25T23:58:12.275Z,100852.84
